Allendale, Illinois
Current Conditions -  °F | °C
As of 4:15 PM on Friday 24 Oct 2014 (Local Time) from KAJG Reporting Station
Scattered Clouds Scattered Clouds  
Wind Chill: 72°   Ceiling: Unl
Heat Index: 72°   Visibility: 10mi
Dew Point: 52°   Wind: 5mph
Humidity: 50%   Direction: 230°SW
Pressure: 30.03"   Gusts: NA
Location:  38.53°N, 87.71°W
Report Text: KAJG 242115Z AUTO 23004KT 10SM SCT046 22/11 A3003 RMK AO2
Loading
Personal Weather Stations






























Interactive Weather Map
Tropical Storm Tracking
New forecast layout! Learn more

10-Day Weather Forecast

Advertisements
Track Severe Weather on mobile